Station: Winton  

  Atmospheric Gas Attenuation - ITU Rec 676-11   ----------------- dB/100km -----------------
Date Time Temp RH % AH g/m3 Dew Point Wind Direction Speed kph Gust kph Barometer mB Rainfall Since 9am 24GHz 47GHz 76GHz 122GHz 134GHz 241GHz
08/05 12:30 23.9 32 6.92 6.2 24 35 1019.8 0 15.6 21.1 29.7 77.4 68.2 233.7
08/05 12:20 23.3 32 6.69 5.7 22 26 1020 0 15.2 20.9 29.1 75.9 66.2 226.6
08/05 12:10 23.2 31 6.44 5.1 28 30 1020.1 0 14.6 20.6 28.3 73.8 63.6 217.4
08/05 12:00 23.6 32 6.81 6 26 37 1020.3 0 15.4 21.0 29.4 76.7 67.3 230.5
08/05 11:50 22.6 33 6.63 5.5 26 30 1020.5 0 15.1 21.0 29.2 76.1 66.1 226.3
08/05 11:40 22.3 33 6.52 5.2 26 35 1020.7 0 14.8 20.9 28.9 75.4 65.2 223.0
08/05 11:30 22.6 33 6.63 5.5 26 35 1021 0 15.1 21.0 29.2 76.1 66.2 226.4
08/05 11:20 21.7 34 6.49 5.1 30 33 1021.4 0 14.8 21.0 29.1 75.7 65.4 223.5
08/05 11:10 21.5 35 6.6 5.4 32 41 1021.5 0 15.0 21.2 29.5 76.9 66.8 228.4
08/05 11:00 21.7 34 6.49 5.2 28 41 1021.5 0 14.8 21.0 29.1 75.8 65.4 223.6
08/05 10:50 21.4 37 6.94 6.1 32 33 1021.5 0 15.7 21.7 30.7 80.1 70.7 242.1
08/05 10:40 20.8 37 6.7 5.6 28 32 1021.6 0 15.3 21.5 30.1 78.5 68.5 234.3
08/05 10:30 20.7 37 6.66 5.8 32 37 1021.7 0 15.2 21.5 30.0 78.2 68.1 233.0
08/05 10:20 19.9 38 6.53 5.1 33 39 1021.6 0 14.9 21.5 29.8 77.8 67.3 230.1
08/05 10:10 20.1 39 6.78 5.7 28 35 1021.7 0 15.5 21.8 30.6 79.9 70.0 239.5
08/05 10:00 19.5 39 6.54 5.2 33 44 1021.6 0 15.0 21.6 30.0 78.3 67.7 231.6
08/05 09:50 19.4 40 6.67 5.4 39 48 1021.7 0 15.3 21.8 30.5 79.6 69.3 237.2
08/05 09:40 19.9 40 6.87 6.2 28 37 1021.7 0 15.7 22.0 31.0 81.0 71.2 243.8
08/05 09:30 18.9 41 6.64 5.4 35 44 1021.8 0 15.2 21.9 30.6 79.8 69.4 237.4
08/05 09:20 18.3 44 6.88 5.8 32 37 1021.6 0 15.7 22.4 31.7 82.6 72.7 249.0
08/05 09:10 18.5 43 6.8 5.7 35 44 1021.7 0 15.6 22.2 31.3 81.7 71.6 245.1
08/05 09:00 17.9 44 6.72 5.5 33 43 1021.7 0 15.4 22.2 31.2 81.5 71.2 243.6
08/05 08:50 17.5 45 6.71 5.4 33 37 1021.6 0 15.4 22.3 31.4 81.8 71.4 244.4
08/05 08:40 17.4 45 6.67 5.6 37 44 1021.5 0 15.3 22.3 31.3 81.5 71.1 243.0
08/05 08:30 17.1 46 6.7 5.4 32 44 1021.2 0 15.4 22.4 31.5 82.1 71.7 245.1
08/05 08:20 16.6 48 6.78 5.5 33 37 1020.8 0 15.6 22.6 31.9 83.4 73.0 249.9
08/05 08:10 16.5 48 6.74 5.4 30 39 1020.7 0 15.5 22.6 31.8 83.1 72.6 248.5
08/05 08:00 16.3 48 6.66 5.3 32 41 1020.8 0 15.4 22.5 31.6 82.5 71.9 245.8
08/05 07:50 16.2 48 6.62 5.4 32 35 1020.8 0 15.3 22.5 31.5 82.2 71.5 244.4
08/05 07:40 15.9 49 6.64 5.2 26 33 1020.7 0 15.3 22.6 31.7 82.7 72.0 246.1
08/05 07:30 15.8 50 6.73 5.4 22 32 1020.7 0 15.5 22.7 32.1 83.7 73.2 250.2
08/05 07:20 15.4 51 6.7 5.3 19 22 1020.5 0 15.5 22.8 32.1 83.8 73.2 250.2
08/05 07:10 15.1 52 6.71 5.3 19 24 1020.3 0 15.5 22.9 32.2 84.2 73.5 251.5
08/05 07:00 15 52 6.67 5.2 20 26 1020.2 0 15.4 22.8 32.1 83.9 73.1 250.1
08/05 06:50 15.1 51 6.58 5 19 22 1020.1 0 15.2 22.7 31.8 82.9 72.0 245.9
08/05 06:40 15.1 51 6.58 5 20 24 1020 0 15.2 22.7 31.8 82.9 72.0 245.9
08/05 06:30 15.3 50 6.53 5 20 26 1019.9 0 15.1 22.5 31.5 82.2 71.2 243.1
08/05 06:20 15.4 49 6.44 4.7 19 26 1019.9 0 14.9 22.4 31.1 81.2 70.0 239.1
08/05 06:10 15.5 48 6.34 4.5 24 30 1019.8 0 14.7 22.2 30.7 80.1 68.7 234.6
08/05 06:00 15.7 48 6.42 4.7 22 32 1019.6 0 14.9 22.3 30.9 80.7 69.5 237.3
08/05 05:50 15.9 47 6.36 4.6 28 33 1019.4 0 14.7 22.1 30.6 79.9 68.6 234.2
08/05 05:40 15.8 47 6.33 4.5 24 28 1019.5 0 14.7 22.1 30.6 79.7 68.3 233.2
08/05 05:30 15.9 47 6.36 4.6 20 28 1019.7 0 14.7 22.1 30.6 79.9 68.6 234.2
08/05 05:20 15.9 47 6.36 4.6 19 20 1019.1 0 14.7 22.1 30.6 79.9 68.6 234.1
08/05 05:10 16 47 6.4 4.7 24 30 1019.1 0 14.8 22.1 30.7 80.1 68.9 235.5
08/05 05:00 16.1 46 6.31 4.5 19 32 1019.2 0 14.6 22.0 30.4 79.2 67.8 231.5
08/05 04:50 16.1 46 6.31 4.5 20 24 1019.2 0 14.6 22.0 30.4 79.2 67.8 231.5
08/05 04:40 16.3 45 6.24 4.3 28 35 1018.9 0 14.5 21.8 30.0 78.3 66.8 228.0
08/05 04:30 16.3 45 6.24 4.4 20 30 1018.9 0 14.5 21.8 30.0 78.3 66.8 228.0
08/05 04:20 16.5 44 6.18 4.2 17 20 1018.8 0 14.3 21.7 29.7 77.5 65.9 224.9
08/05 04:10 16.9 43 6.18 4.2 22 26 1018.7 0 14.3 21.6 29.6 77.2 65.6 223.8
08/05 04:00 16.9 43 6.18 4.3 24 35 1018.8 0 14.3 21.6 29.6 77.2 65.6 223.8
08/05 03:50 17 42 6.08 4 24 30 1018.7 0 14.1 21.4 29.2 76.1 64.4 219.5
08/05 03:40 16.9 43 6.18 4.2 22 28 1018.7 0 14.3 21.6 29.6 77.2 65.6 223.8
08/05 03:30 17.4 41 6.08 4 26 43 1018.5 0 14.1 21.3 29.1 75.7 64.0 218.3
08/05 03:20 17.4 41 6.08 4 22 26 1018.5 0 14.1 21.3 29.1 75.7 64.0 218.3
08/05 03:10 17.7 41 6.19 4.3 28 33 1018.4 0 14.3 21.4 29.3 76.5 65.0 222.0
08/05 03:00 17.6 41 6.15 4.2 22 32 1018.5 0 14.2 21.4 29.2 76.2 64.7 220.6
08/05 02:50 17.7 41 6.19 4.3 24 28 1018.6 0 14.3 21.4 29.3 76.5 65.1 222.0
08/05 02:40 17.9 40 6.11 4.1 20 24 1018.6 0 14.1 21.3 29.0 75.6 64.0 218.2
08/05 02:30 18.1 40 6.18 4.3 26 37 1018.4 0 14.3 21.3 29.2 76.0 64.6 220.5
08/05 02:20 18 40 6.14 4.2 22 24 1018.4 0 14.2 21.3 29.1 75.7 64.2 219.1
08/05 02:10 18 40 6.14 4.2 22 28 1018.5 0 14.2 21.3 29.1 75.7 64.2 219.2
08/05 02:00 18.2 39 6.06 4 22 30 1018.5 0 14.0 21.1 28.7 74.8 63.2 215.4
08/05 01:50 18.3 39 6.1 4.1 19 20 1018.5 0 14.1 21.2 28.8 75.1 63.5 216.8
08/05 01:40 18.5 39 6.17 4.3 26 30 1018.5 0 14.2 21.2 29.0 75.5 64.2 219.0
08/05 01:30 18.6 38 6.05 4 22 32 1018.5 0 14.0 21.0 28.5 74.4 62.7 214.0
08/05 01:20 18.9 37 5.99 3.9 22 28 1018.6 0 13.9 20.9 28.2 73.5 61.8 210.9
08/05 01:10 19.1 36 5.9 4 24 28 1018.6 0 13.7 20.7 27.9 72.6 60.7 206.8
08/05 01:00 19.1 37 6.06 4.1 20 33 1018.5 0 14.0 20.9 28.4 74.0 62.5 213.1
08/05 00:50 19.3 37 6.14 4.2 22 28 1018.6 0 14.2 21.0 28.6 74.6 63.2 215.7
08/05 00:40 19.1 38 6.23 4.4 20 24 1018.6 0 14.3 21.2 29.0 75.6 64.4 219.8
08/05 00:30 18.3 41 6.41 4.8 13 19 1018.7 0 14.8 21.6 29.9 78.0 67.1 229.2
08/05 00:20 18.3 41 6.41 4.8 13 13 1018.8 0 14.8 21.6 29.9 78.0 67.1 229.2
08/05 00:10 18.6 40 6.37 4.7 13 13 1018.9 0 14.7 21.5 29.7 77.3 66.4 226.8
08/05 00:00 19 40 6.52 5.1 17 24 1018.9 0 15.0 21.6 30.0 78.3 67.8 231.7
07/05 23:50 19.3 39 6.47 5 17 20 1018.9 0 14.8 21.5 29.7 77.6 67.0 228.9
07/05 23:40 19.5 38 6.38 4.8 17 20 1018.9 0 14.6 21.3 29.4 76.6 65.8 224.7
07/05 23:30 19.3 39 6.47 5 17 22 1019 0 14.8 21.5 29.8 77.6 67.0 228.9
07/05 23:20 18.9 41 6.64 5.3 13 17 1019.1 0 15.2 21.8 30.5 79.6 69.3 236.9
07/05 23:10 18.2 44 6.84 5.7 13 17 1019 0 15.7 22.2 31.5 82.1 72.2 247.1
07/05 23:00 18.2 44 6.84 5.8 11 15 1019.1 0 15.7 22.3 31.5 82.1 72.2 247.1
07/05 22:50 18.5 44 6.96 6 11 13 1019.1 0 15.9 22.4 31.8 83.0 73.3 251.1
07/05 22:40 18.5 44 6.96 6 13 15 1019.1 0 15.9 22.4 31.8 83.0 73.3 251.1
07/05 22:30 18.5 46 7.28 6.7 11 17 1019.1 0 16.6 22.8 32.9 86.0 77.1 264.3
07/05 22:20 18.1 48 7.42 6.9 11 13 1019 0 16.9 23.1 33.6 87.8 79.1 271.5
07/05 22:10 17.7 52 7.85 7.7 11 13 1019 0 17.8 23.9 35.3 92.5 84.8 291.1
07/05 22:00 17.9 52 7.94 7.9 13 13 1019 0 18.0 23.9 35.6 93.1 85.6 294.3
07/05 21:50 17.9 53 8.09 8.2 13 13 1019 0 18.3 24.2 36.1 94.6 87.5 300.7
07/05 21:40 17.9 55 8.4 8.7 13 13 1019 0 19.0 24.6 37.3 97.7 91.3 314.2
07/05 21:30 18.2 54 8.39 8.7 11 13 1018.8 0 18.9 24.5 37.1 97.3 90.8 312.5
07/05 21:20 18.8 52 8.37 8.7 11 13 1018.7 0 18.9 24.3 36.8 96.3 89.9 309.3
07/05 21:10 19.2 51 8.41 8.8 11 13 1018.7 0 18.9 24.3 36.7 96.2 89.9 309.5
07/05 21:00 19.1 52 8.52 9 11 15 1018.7 0 19.2 24.5 37.2 97.5 91.4 314.6
07/05 20:50 19.3 52 8.62 9.4 11 11 1018.6 0 19.4 24.6 37.5 98.2 92.4 318.1
07/05 20:40 19.3 52 8.62 9.4 11 11 1018.6 0 19.4 24.6 37.5 98.2 92.4 318.1
07/05 20:30 19.1 53 8.69 9.3 9 11 1018.5 0 19.5 24.7 37.8 99.1 93.5 321.9
07/05 20:20 19.4 52 8.68 9.3 9 11 1018.4 0 19.5 24.6 37.6 98.7 93.0 320.2
07/05 20:10 20 49 8.47 9.2 11 13 1018.3 0 19.0 24.2 36.6 95.8 89.7 308.8
07/05 20:00 20.1 51 8.86 9.7 11 13 1018.3 0 19.8 24.7 38.0 99.6 94.4 325.1

Last Refresh: 08-May-2026 12:07:16

Bureau of Meteorology